createdAt,value
2022-08-24T00:01:34.333Z,21.70
2022-08-24T00:04:20.173Z,21.80
2022-08-24T00:07:18.007Z,21.90
2022-08-24T00:10:13.741Z,21.90
2022-08-24T00:12:59.406Z,21.90
2022-08-24T00:15:46.018Z,21.90
2022-08-24T00:18:33.462Z,21.90
2022-08-24T00:21:20.532Z,21.90
2022-08-24T00:24:06.774Z,21.90
2022-08-24T00:26:54.015Z,21.80
2022-08-24T00:29:39.804Z,21.80
2022-08-24T00:32:25.627Z,21.80
2022-08-24T00:35:12.484Z,21.70
2022-08-24T00:37:58.250Z,21.70
2022-08-24T00:40:46.990Z,21.60
2022-08-24T00:43:33.203Z,21.60
2022-08-24T00:46:26.371Z,21.60
2022-08-24T00:49:28.811Z,21.60
2022-08-24T00:52:26.328Z,21.50
2022-08-24T00:55:35.965Z,21.50
2022-08-24T00:58:27.984Z,21.40
2022-08-24T01:01:15.013Z,21.40
2022-08-24T01:04:01.143Z,21.50
2022-08-24T01:06:49.864Z,21.40
2022-08-24T01:09:35.550Z,21.40
2022-08-24T01:12:22.721Z,21.30
2022-08-24T01:15:10.533Z,21.20
2022-08-24T01:18:16.312Z,21.20
2022-08-24T01:21:22.755Z,21.20
2022-08-24T01:24:12.842Z,21.20
2022-08-24T01:26:59.637Z,21.20
2022-08-24T01:29:46.892Z,21.20
2022-08-24T01:32:32.382Z,21.20
2022-08-24T01:35:18.141Z,21.10
2022-08-24T01:38:08.669Z,21.20
2022-08-24T01:40:59.751Z,21.20
2022-08-24T01:43:46.308Z,21.20
2022-08-24T01:46:32.424Z,21.30
2022-08-24T01:49:18.442Z,21.20
2022-08-24T01:52:06.774Z,21.30
2022-08-24T01:54:54.606Z,21.40
2022-08-24T01:57:40.632Z,21.30
2022-08-24T02:00:27.535Z,21.20
2022-08-24T02:03:13.727Z,21.10
2022-08-24T02:06:01.112Z,21.10
2022-08-24T02:08:48.452Z,21.10
2022-08-24T02:11:34.690Z,21.10
2022-08-24T02:14:21.552Z,21.10
2022-08-24T02:17:08.616Z,21.10
2022-08-24T02:19:54.654Z,21.10
2022-08-24T02:22:40.479Z,21.10
2022-08-24T02:25:30.233Z,21.10
2022-08-24T02:28:15.928Z,21.10
2022-08-24T02:31:05.926Z,21.10
2022-08-24T02:33:51.627Z,21.10
2022-08-24T02:36:38.822Z,21.10
2022-08-24T02:39:24.650Z,21.10
2022-08-24T02:42:10.590Z,21.00
2022-08-24T02:44:56.357Z,21.00
2022-08-24T02:47:42.390Z,21.00
2022-08-24T02:50:28.114Z,20.90
2022-08-24T02:53:15.593Z,20.90
2022-08-24T02:56:01.262Z,20.80
2022-08-24T02:58:47.749Z,20.80
2022-08-24T03:01:37.912Z,20.70
2022-08-24T03:04:24.088Z,20.70
2022-08-24T03:07:09.953Z,20.70
2022-08-24T03:09:56.541Z,20.60
2022-08-24T03:12:42.569Z,20.60
2022-08-24T03:15:29.130Z,20.60
2022-08-24T03:18:15.974Z,20.60
2022-08-24T03:21:03.383Z,20.60
2022-08-24T03:23:54.292Z,20.50
2022-08-24T03:26:44.061Z,20.50
2022-08-24T03:29:33.725Z,20.50
2022-08-24T03:32:20.536Z,20.40
2022-08-24T03:35:06.889Z,20.30
2022-08-24T03:37:52.762Z,20.40
2022-08-24T03:40:40.023Z,20.30
2022-08-24T03:43:44.671Z,20.20
2022-08-24T03:46:35.641Z,20.10
2022-08-24T03:49:21.986Z,20.10
2022-08-24T03:52:08.606Z,20.10
2022-08-24T03:54:54.583Z,20.10
2022-08-24T03:57:40.488Z,20.00
2022-08-24T04:00:26.096Z,20.00
2022-08-24T04:03:16.697Z,20.00
2022-08-24T04:06:03.290Z,19.90
2022-08-24T04:08:50.168Z,19.90
2022-08-24T04:11:39.473Z,20.30
2022-08-24T04:14:28.019Z,19.80
2022-08-24T04:17:20.056Z,19.80
2022-08-24T04:20:07.597Z,19.80
2022-08-24T04:22:55.184Z,19.60
2022-08-24T04:25:46.646Z,19.60
2022-08-24T04:28:32.912Z,19.60
2022-08-24T04:31:19.102Z,19.60
2022-08-24T04:34:07.615Z,19.70
2022-08-24T04:36:53.485Z,19.70
2022-08-24T04:39:40.098Z,19.80
2022-08-24T04:42:48.286Z,19.70
2022-08-24T04:45:38.193Z,19.80
2022-08-24T04:48:24.980Z,19.70
2022-08-24T04:51:14.059Z,19.70
2022-08-24T04:54:00.458Z,19.70
2022-08-24T04:56:46.211Z,19.70
2022-08-24T04:59:31.997Z,19.80
2022-08-24T05:02:18.381Z,19.90
2022-08-24T05:05:11.377Z,20.00
2022-08-24T05:07:57.061Z,20.40
2022-08-24T05:10:45.898Z,20.60
2022-08-24T05:13:31.473Z,20.90
2022-08-24T05:16:18.409Z,21.70
2022-08-24T05:19:07.152Z,22.20
2022-08-24T05:21:53.110Z,22.60
2022-08-24T05:24:38.965Z,22.90
2022-08-24T05:27:25.213Z,23.60
2022-08-24T05:30:12.499Z,23.90
2022-08-24T05:32:58.245Z,24.10
2022-08-24T05:35:44.652Z,23.90
2022-08-24T05:38:33.309Z,24.00
2022-08-24T05:41:20.109Z,24.30
2022-08-24T05:44:14.211Z,24.80
2022-08-24T05:47:02.791Z,25.20
2022-08-24T05:49:53.056Z,25.70
2022-08-24T05:52:39.848Z,26.00
2022-08-24T05:55:25.747Z,25.80
2022-08-24T05:58:13.107Z,25.40
2022-08-24T06:01:13.198Z,25.00
2022-08-24T06:03:59.908Z,24.60
2022-08-24T06:06:48.682Z,24.30
2022-08-24T06:09:36.350Z,24.20
2022-08-24T06:12:22.666Z,24.00
2022-08-24T06:15:08.809Z,24.00
2022-08-24T06:17:54.897Z,24.00
2022-08-24T06:20:42.765Z,24.10
2022-08-24T06:23:32.329Z,24.30
2022-08-24T06:26:40.739Z,24.60
2022-08-24T06:29:27.388Z,24.90
2022-08-24T06:32:18.053Z,25.20
2022-08-24T06:35:04.123Z,25.40
2022-08-24T06:37:50.287Z,25.70
2022-08-24T06:40:36.153Z,25.90
2022-08-24T06:43:22.833Z,26.10
2022-08-24T06:46:11.256Z,26.30
2022-08-24T06:49:00.193Z,26.30
2022-08-24T06:51:50.438Z,26.30
2022-08-24T06:54:37.706Z,26.30
2022-08-24T06:57:23.465Z,26.30
2022-08-24T07:00:13.689Z,26.30
2022-08-24T07:03:00.393Z,26.40
2022-08-24T07:05:53.871Z,26.70
2022-08-24T07:08:58.509Z,26.80
2022-08-24T07:11:45.061Z,27.00
2022-08-24T07:14:31.207Z,27.20
2022-08-24T07:17:19.165Z,27.50
2022-08-24T07:20:05.836Z,27.60
2022-08-24T07:23:41.366Z,27.70
2022-08-24T07:26:31.483Z,27.70
2022-08-24T07:29:45.744Z,27.90
2022-08-24T07:32:24.682Z,28.00
2022-08-24T07:35:13.970Z,28.20
2022-08-24T07:38:01.092Z,28.40
2022-08-24T07:41:09.357Z,28.70
2022-08-24T07:43:55.020Z,28.80
2022-08-24T07:46:41.805Z,29.00
2022-08-24T07:49:36.844Z,29.00
2022-08-24T07:52:24.774Z,29.10
2022-08-24T07:55:12.179Z,29.20
2022-08-24T07:57:59.582Z,29.30
2022-08-24T08:00:49.343Z,28.80
2022-08-24T08:03:36.204Z,28.30
2022-08-24T08:06:22.166Z,28.20
2022-08-24T08:09:12.490Z,28.20
2022-08-24T08:11:59.975Z,28.40
2022-08-24T08:14:45.817Z,28.00
2022-08-24T08:17:31.940Z,28.30
2022-08-24T08:20:19.454Z,28.90
2022-08-24T08:23:24.894Z,28.90
2022-08-24T08:26:23.100Z,29.20
2022-08-24T08:29:32.456Z,29.30
2022-08-24T08:32:20.173Z,29.70
2022-08-24T08:35:09.098Z,29.60
2022-08-24T08:37:57.926Z,29.30
2022-08-24T08:40:55.333Z,29.40
2022-08-24T08:43:52.609Z,29.60
2022-08-24T08:47:17.713Z,29.30
2022-08-24T08:50:18.811Z,29.30
2022-08-24T08:53:14.230Z,29.30
2022-08-24T08:56:34.561Z,29.30
2022-08-24T08:59:41.148Z,29.40
2022-08-24T09:03:07.152Z,30.00
2022-08-24T09:06:18.126Z,29.90
2022-08-24T09:09:35.196Z,30.10
2022-08-24T09:12:57.155Z,30.10
2022-08-24T09:16:10.634Z,29.70
2022-08-24T09:19:31.888Z,28.90
2022-08-24T09:22:21.381Z,29.00
2022-08-24T09:25:26.612Z,29.20
2022-08-24T09:28:59.526Z,28.90
2022-08-24T09:32:00.758Z,28.40
2022-08-24T09:34:57.169Z,28.50
2022-08-24T09:38:04.930Z,28.80
2022-08-24T09:41:24.911Z,28.50
2022-08-24T09:44:32.021Z,28.60
2022-08-24T09:47:42.566Z,30.20
2022-08-24T09:50:50.439Z,28.60
2022-08-24T09:53:55.700Z,28.90
2022-08-24T09:57:20.002Z,29.30
2022-08-24T10:00:18.457Z,29.50
2022-08-24T10:03:36.124Z,29.30
2022-08-24T10:06:32.830Z,29.40
2022-08-24T10:09:55.652Z,29.30
2022-08-24T10:13:08.893Z,29.30
2022-08-24T10:16:00.902Z,29.40
2022-08-24T10:19:18.233Z,29.30
2022-08-24T10:22:19.775Z,29.30
2022-08-24T10:25:36.313Z,29.20
2022-08-24T10:28:46.941Z,28.90
2022-08-24T10:31:38.885Z,29.10
2022-08-24T10:34:54.256Z,29.20
2022-08-24T10:37:51.939Z,29.30
2022-08-24T10:40:49.407Z,29.10
2022-08-24T10:44:02.937Z,29.30
2022-08-24T10:46:59.750Z,29.40
2022-08-24T10:50:19.977Z,29.30
2022-08-24T10:53:36.578Z,29.40
2022-08-24T10:56:30.283Z,29.00
2022-08-24T10:59:23.805Z,29.20
2022-08-24T11:02:29.208Z,29.40
2022-08-24T11:05:30.154Z,29.30
2022-08-24T11:08:25.121Z,29.40
2022-08-24T11:11:24.897Z,29.40
2022-08-24T11:14:16.781Z,29.50
2022-08-24T11:17:21.195Z,29.60
2022-08-24T11:20:28.157Z,29.50
2022-08-24T11:23:25.506Z,29.30
2022-08-24T11:26:21.348Z,29.20
2022-08-24T11:29:06.949Z,29.10
2022-08-24T11:31:53.258Z,29.30
2022-08-24T11:34:40.077Z,29.30
2022-08-24T11:37:33.689Z,29.30
2022-08-24T11:40:25.128Z,29.50
2022-08-24T11:43:47.941Z,29.40
2022-08-24T11:46:34.482Z,29.20
2022-08-24T11:49:42.394Z,29.40
2022-08-24T11:52:45.258Z,29.40
2022-08-24T11:55:47.235Z,29.40
2022-08-24T11:58:57.177Z,29.50
2022-08-24T12:01:59.036Z,29.30
2022-08-24T12:05:14.331Z,29.30
2022-08-24T12:08:21.211Z,29.20
2022-08-24T12:11:41.872Z,29.10
2022-08-24T12:15:00.344Z,29.20
2022-08-24T12:17:54.372Z,29.30
2022-08-24T12:20:43.593Z,29.30
2022-08-24T12:23:43.421Z,29.30
2022-08-24T12:26:50.265Z,29.30
2022-08-24T12:29:54.562Z,29.50
2022-08-24T12:33:00.891Z,29.70
2022-08-24T12:35:54.205Z,29.80
2022-08-24T12:38:45.927Z,29.70
2022-08-24T12:41:40.288Z,29.60
2022-08-24T12:44:39.127Z,29.50
2022-08-24T12:47:52.556Z,29.60
2022-08-24T12:50:49.127Z,29.80
2022-08-24T12:54:02.263Z,29.70
2022-08-24T12:57:03.401Z,29.70
2022-08-24T12:59:56.636Z,29.70
2022-08-24T13:02:48.384Z,29.80
2022-08-24T13:05:45.844Z,29.80
2022-08-24T13:08:41.221Z,29.70
2022-08-24T13:11:28.606Z,29.70
2022-08-24T13:14:22.062Z,29.70
2022-08-24T13:17:12.211Z,29.80
2022-08-24T13:20:28.664Z,29.90
2022-08-24T13:23:19.968Z,29.80
2022-08-24T13:26:28.936Z,29.80
2022-08-24T13:29:16.480Z,29.80
2022-08-24T13:32:02.792Z,30.00
2022-08-24T13:34:51.073Z,30.10
2022-08-24T13:37:37.217Z,30.00
2022-08-24T13:40:27.874Z,30.00
2022-08-24T13:43:24.602Z,30.00
2022-08-24T13:47:01.290Z,30.10
2022-08-24T13:50:12.085Z,30.10
2022-08-24T13:53:26.235Z,30.20
2022-08-24T13:56:30.295Z,30.30
2022-08-24T13:59:37.229Z,30.30
2022-08-24T14:02:49.827Z,30.30
2022-08-24T14:05:45.868Z,30.30
2022-08-24T14:08:55.444Z,30.30
2022-08-24T14:12:07.897Z,30.10
2022-08-24T14:15:19.347Z,30.20
2022-08-24T14:18:14.702Z,30.10
2022-08-24T14:21:06.220Z,30.20
2022-08-24T14:23:59.988Z,30.20
2022-08-24T14:26:48.793Z,30.20
2022-08-24T14:29:41.024Z,30.30
2022-08-24T14:32:30.197Z,30.10
2022-08-24T14:35:27.936Z,30.00
2022-08-24T14:38:21.284Z,30.00
2022-08-24T14:41:30.511Z,30.00
2022-08-24T14:44:48.247Z,30.00
2022-08-24T14:48:08.147Z,30.10
2022-08-24T14:51:10.843Z,30.10
2022-08-24T14:54:15.425Z,30.10
2022-08-24T14:57:26.034Z,30.10
2022-08-24T15:00:15.363Z,30.10
2022-08-24T15:03:12.068Z,30.10
2022-08-24T15:06:25.766Z,30.20
2022-08-24T15:09:22.437Z,30.20
2022-08-24T15:12:32.315Z,30.10
2022-08-24T15:16:01.068Z,30.10
2022-08-24T15:19:07.495Z,30.10
2022-08-24T15:22:08.237Z,30.10
2022-08-24T15:25:13.498Z,30.10
2022-08-24T15:28:35.876Z,30.10
2022-08-24T15:31:26.081Z,29.90
2022-08-24T15:34:12.254Z,29.90
2022-08-24T15:37:01.838Z,29.80
2022-08-24T15:39:47.534Z,29.80
2022-08-24T15:42:36.891Z,29.80
2022-08-24T15:45:23.459Z,29.90
2022-08-24T15:48:14.268Z,29.90
2022-08-24T15:51:01.158Z,29.90
2022-08-24T15:53:47.837Z,29.90
2022-08-24T15:56:43.565Z,29.90
2022-08-24T15:59:45.752Z,29.90
2022-08-24T16:02:35.810Z,29.80
2022-08-24T16:05:25.466Z,29.80
2022-08-24T16:08:13.539Z,29.80
2022-08-24T16:11:19.204Z,29.70
2022-08-24T16:14:12.072Z,29.80
2022-08-24T16:16:58.664Z,29.70
2022-08-24T16:19:51.349Z,29.70
2022-08-24T16:22:40.589Z,29.70
2022-08-24T16:25:28.853Z,29.70
2022-08-24T16:28:23.785Z,29.60
2022-08-24T16:31:10.812Z,29.60
2022-08-24T16:34:29.132Z,29.60
2022-08-24T16:37:16.273Z,29.60
2022-08-24T16:40:02.158Z,29.50
2022-08-24T16:42:48.613Z,29.50
2022-08-24T16:45:36.213Z,29.40
2022-08-24T16:48:22.263Z,29.40
2022-08-24T16:51:08.080Z,29.40
2022-08-24T16:53:54.162Z,29.40
2022-08-24T16:56:42.155Z,29.40
2022-08-24T16:59:32.001Z,29.30
2022-08-24T17:02:19.605Z,29.20
2022-08-24T17:05:05.689Z,29.10
2022-08-24T17:07:51.779Z,29.10
2022-08-24T17:10:38.215Z,29.00
2022-08-24T17:16:29.659Z,28.90
2022-08-24T17:19:18.668Z,28.90
2022-08-24T17:22:05.611Z,28.80
2022-08-24T17:24:52.922Z,28.80
2022-08-24T17:27:39.066Z,28.70
2022-08-24T17:30:25.999Z,28.60
2022-08-24T17:33:15.586Z,28.50
2022-08-24T17:36:02.034Z,28.50
2022-08-24T17:38:55.104Z,28.40
2022-08-24T17:41:41.677Z,28.40
2022-08-24T17:44:32.018Z,28.30
2022-08-24T17:47:18.912Z,28.30
2022-08-24T17:50:06.365Z,28.20
2022-08-24T17:52:58.909Z,28.10
2022-08-24T17:55:46.597Z,28.10
2022-08-24T17:58:32.696Z,28.00
2022-08-24T18:01:19.001Z,28.00
2022-08-24T18:04:04.802Z,27.90
2022-08-24T18:06:50.460Z,27.90
2022-08-24T18:09:48.446Z,27.70
2022-08-24T18:12:34.353Z,27.70
2022-08-24T18:15:20.518Z,27.60
2022-08-24T18:18:08.892Z,27.50
2022-08-24T18:20:54.806Z,27.50
2022-08-24T18:23:43.617Z,27.50
2022-08-24T18:26:31.452Z,27.40
2022-08-24T18:29:21.622Z,27.40
2022-08-24T18:32:07.849Z,27.40
2022-08-24T18:34:53.430Z,27.30
2022-08-24T18:37:39.324Z,27.30
2022-08-24T18:40:26.864Z,27.20
2022-08-24T18:43:20.418Z,27.10
2022-08-24T18:48:53.597Z,27.00
2022-08-24T18:51:39.666Z,26.90
2022-08-24T18:54:32.479Z,26.80
2022-08-24T18:57:19.224Z,26.70
2022-08-24T19:00:07.633Z,26.70
2022-08-24T19:02:53.716Z,26.60
2022-08-24T19:05:40.122Z,26.50
2022-08-24T19:08:25.737Z,26.50
2022-08-24T19:11:11.520Z,26.40
2022-08-24T19:13:57.979Z,26.40
2022-08-24T19:16:46.532Z,26.30
2022-08-24T19:19:37.324Z,26.30
2022-08-24T19:22:23.441Z,26.30
2022-08-24T19:25:25.774Z,26.20
2022-08-24T19:28:12.040Z,26.10
2022-08-24T19:31:00.932Z,26.10
2022-08-24T19:33:49.905Z,26.00
2022-08-24T19:36:36.014Z,26.00
2022-08-24T19:39:23.577Z,25.90
2022-08-24T19:42:17.696Z,25.90
2022-08-24T19:45:22.843Z,25.70
2022-08-24T19:48:10.046Z,25.70
2022-08-24T19:50:56.518Z,25.60
2022-08-24T19:53:43.052Z,25.60
2022-08-24T19:56:29.041Z,25.50
2022-08-24T19:59:26.788Z,25.50
2022-08-24T20:02:12.608Z,25.40
2022-08-24T20:04:59.545Z,25.40
2022-08-24T20:07:46.390Z,25.40
2022-08-24T20:10:33.836Z,25.30
2022-08-24T20:13:19.914Z,25.30
2022-08-24T20:16:10.454Z,25.30
2022-08-24T20:18:56.656Z,25.30
2022-08-24T20:21:42.782Z,25.20
2022-08-24T20:24:28.908Z,25.10
2022-08-24T20:27:19.422Z,25.00
2022-08-24T20:30:06.972Z,25.00
2022-08-24T20:32:54.047Z,25.00
2022-08-24T20:35:40.265Z,24.90
2022-08-24T20:38:26.754Z,24.90
2022-08-24T20:41:17.558Z,24.80
2022-08-24T20:44:04.292Z,24.70
2022-08-24T20:46:50.259Z,24.60
2022-08-24T20:49:37.029Z,24.70
2022-08-24T20:52:22.594Z,24.60
2022-08-24T20:55:10.899Z,24.60
2022-08-24T20:58:03.398Z,24.50
2022-08-24T21:00:49.589Z,24.50
2022-08-24T21:03:36.855Z,24.50
2022-08-24T21:06:23.527Z,24.40
2022-08-24T21:09:10.494Z,24.40
2022-08-24T21:12:00.966Z,24.40
2022-08-24T21:14:47.052Z,24.30
2022-08-24T21:17:32.655Z,24.20
2022-08-24T21:20:19.256Z,24.20
2022-08-24T21:23:05.635Z,24.20
2022-08-24T21:25:52.257Z,24.20
2022-08-24T21:28:41.584Z,24.10
2022-08-24T21:31:28.529Z,24.10
2022-08-24T21:34:32.755Z,24.00
2022-08-24T21:37:20.224Z,24.00
2022-08-24T21:40:07.571Z,24.00
2022-08-24T21:42:53.344Z,23.90
2022-08-24T21:45:41.302Z,23.90
2022-08-24T21:48:26.985Z,23.80
2022-08-24T21:51:12.424Z,23.80
2022-08-24T21:53:59.625Z,23.80
2022-08-24T21:56:45.638Z,23.80
2022-08-24T21:59:31.396Z,23.80
2022-08-24T22:02:20.717Z,23.70
2022-08-24T22:05:07.054Z,23.60
2022-08-24T22:07:52.869Z,23.60
2022-08-24T22:10:38.690Z,23.60
2022-08-24T22:13:24.390Z,23.60
2022-08-24T22:16:11.607Z,23.60
2022-08-24T22:18:57.545Z,23.60
2022-08-24T22:21:47.890Z,23.60
2022-08-24T22:24:34.065Z,23.50
2022-08-24T22:27:19.521Z,23.50
2022-08-24T22:30:17.146Z,23.40
2022-08-24T22:33:05.005Z,23.40
2022-08-24T22:35:51.772Z,23.30
2022-08-24T22:38:38.307Z,23.30
2022-08-24T22:41:24.675Z,23.30
2022-08-24T22:44:21.567Z,23.20
2022-08-24T22:47:11.953Z,23.20
2022-08-24T22:50:00.584Z,23.20
2022-08-24T22:52:46.090Z,24.20
2022-08-24T22:55:32.553Z,23.40
2022-08-24T22:58:18.336Z,23.10
2022-08-24T23:01:04.370Z,23.10
2022-08-24T23:03:51.256Z,23.10
2022-08-24T23:06:37.374Z,23.00
2022-08-24T23:09:23.435Z,23.00
2022-08-24T23:12:10.436Z,23.00
2022-08-24T23:14:56.171Z,23.00
2022-08-24T23:17:42.851Z,23.00
2022-08-24T23:20:28.589Z,23.00
2022-08-24T23:23:14.527Z,23.00
2022-08-24T23:26:04.021Z,23.00
2022-08-24T23:28:50.347Z,23.00
2022-08-24T23:31:36.726Z,23.00
2022-08-24T23:34:22.932Z,23.00
2022-08-24T23:37:09.186Z,23.00
2022-08-24T23:39:55.285Z,23.00
2022-08-24T23:42:40.896Z,23.00
2022-08-24T23:45:28.327Z,23.00
2022-08-24T23:48:16.290Z,23.00
2022-08-24T23:51:01.740Z,23.00
2022-08-24T23:53:48.695Z,23.00
2022-08-24T23:56:38.404Z,23.10
2022-08-24T23:59:29.305Z,23.00
